createdAt,value
2018-12-04T00:00:49.674Z,7.3
2018-12-04T00:02:01.981Z,7.3
2018-12-04T00:03:14.236Z,7.3
2018-12-04T00:05:38.608Z,7.3
2018-12-04T00:06:50.820Z,7.2
2018-12-04T00:08:02.988Z,7.2
2018-12-04T00:09:15.197Z,7.2
2018-12-04T00:10:27.368Z,7.3
2018-12-04T00:11:39.581Z,7.3
2018-12-04T00:12:51.790Z,7.3
2018-12-04T00:14:04.083Z,7.3
2018-12-04T00:15:16.300Z,7.3
2018-12-04T00:16:28.430Z,7.3
2018-12-04T00:17:40.680Z,7.3
2018-12-04T00:18:52.849Z,7.3
2018-12-04T00:20:05.067Z,7.3
2018-12-04T00:21:17.352Z,7.3
2018-12-04T00:22:29.581Z,7.2
2018-12-04T00:23:41.749Z,7.3
2018-12-04T00:24:53.931Z,7.3
2018-12-04T00:26:06.125Z,7.3
2018-12-04T00:27:18.351Z,7.3
2018-12-04T00:28:30.554Z,7.3
2018-12-04T00:29:42.828Z,7.3
2018-12-04T00:30:54.999Z,7.4
2018-12-04T00:32:07.215Z,7.3
2018-12-04T00:33:19.412Z,7.4
2018-12-04T00:34:31.696Z,7.4
2018-12-04T00:35:43.847Z,7.4
2018-12-04T00:36:56.048Z,7.4
2018-12-04T00:38:08.344Z,7.3
2018-12-04T00:39:20.511Z,7.3
2018-12-04T00:40:32.694Z,7.2
2018-12-04T00:41:44.960Z,7.3
2018-12-04T00:42:57.116Z,7.3
2018-12-04T00:44:09.455Z,7.3
2018-12-04T00:45:21.607Z,7.4
2018-12-04T00:46:33.844Z,7.4
2018-12-04T00:47:46.072Z,7.4
2018-12-04T00:48:58.281Z,7.3
2018-12-04T00:50:10.462Z,7.3
2018-12-04T00:51:22.622Z,7.3
2018-12-04T00:52:34.910Z,7.3
2018-12-04T00:53:47.077Z,7.4
2018-12-04T00:54:59.269Z,7.4
2018-12-04T00:56:11.488Z,7.4
2018-12-04T00:57:23.790Z,7.3
2018-12-04T00:58:35.927Z,7.4
2018-12-04T00:59:48.229Z,7.5
2018-12-04T01:01:00.567Z,7.5
2018-12-04T01:02:12.647Z,7.4
2018-12-04T01:03:24.786Z,7.4
2018-12-04T01:04:37.148Z,7.4
2018-12-04T01:05:49.270Z,7.4
2018-12-04T01:07:01.501Z,7.3
2018-12-04T01:08:13.628Z,7.3
2018-12-04T01:09:25.881Z,7.5
2018-12-04T01:10:38.045Z,7.5
2018-12-04T01:11:50.346Z,7.5
2018-12-04T01:13:02.467Z,7.5
2018-12-04T01:14:15.548Z,7.4
2018-12-04T01:15:27.086Z,7.3
2018-12-04T01:16:39.159Z,7.3
2018-12-04T01:17:51.389Z,7.2
2018-12-04T01:19:03.505Z,7.2
2018-12-04T01:20:15.774Z,7.2
2018-12-04T01:21:28.001Z,7.2
2018-12-04T01:22:40.128Z,7.1
2018-12-04T01:23:52.410Z,7.1
2018-12-04T01:25:04.569Z,7.2
2018-12-04T01:26:16.761Z,7.2
2018-12-04T01:27:29.015Z,7.2
2018-12-04T01:28:41.168Z,7.2
2018-12-04T01:29:53.422Z,7.2
2018-12-04T01:31:05.654Z,7.2
2018-12-04T01:32:17.849Z,7.1
2018-12-04T01:33:29.962Z,7.2
2018-12-04T01:34:42.167Z,7.3
2018-12-04T01:35:54.456Z,7.3
2018-12-04T01:37:06.658Z,7.2
2018-12-04T01:38:18.782Z,7.1
2018-12-04T01:39:30.982Z,7.2
2018-12-04T01:40:43.325Z,7.2
2018-12-04T01:41:55.545Z,7.1
2018-12-04T01:43:07.594Z,7.1
2018-12-04T01:44:19.824Z,7.1
2018-12-04T01:45:32.012Z,7.1
2018-12-04T01:46:44.299Z,7.1
2018-12-04T01:47:56.438Z,7.1
2018-12-04T01:49:08.850Z,7.1
2018-12-04T01:50:20.855Z,7.2
2018-12-04T01:51:33.150Z,7.2
2018-12-04T01:52:45.383Z,7.2
2018-12-04T01:53:57.563Z,7.2
2018-12-04T01:55:10.004Z,7.2
2018-12-04T01:56:22.020Z,7.2
2018-12-04T01:57:34.121Z,7.2
2018-12-04T01:58:46.346Z,7.1
2018-12-04T01:59:58.560Z,7.1
2018-12-04T02:01:10.797Z,7.1
2018-12-04T02:02:23.048Z,7
2018-12-04T02:03:35.182Z,7.1
2018-12-04T02:04:47.392Z,7.2
2018-12-04T02:05:59.687Z,7.3
2018-12-04T02:07:11.934Z,7.2
2018-12-04T02:08:24.114Z,7.2
2018-12-04T02:09:36.371Z,7.2
2018-12-04T02:10:48.470Z,7.2
2018-12-04T02:12:00.702Z,7.2
2018-12-04T02:13:13.043Z,7.2
2018-12-04T02:14:25.131Z,7.2
2018-12-04T02:15:37.387Z,7.2
2018-12-04T02:16:49.598Z,7.2
2018-12-04T02:18:01.800Z,7.2
2018-12-04T02:19:13.954Z,7.2
2018-12-04T02:20:26.179Z,7.3
2018-12-04T02:21:38.432Z,7.3
2018-12-04T02:22:50.657Z,7.3
2018-12-04T02:24:02.856Z,7.4
2018-12-04T02:26:27.295Z,7.3
2018-12-04T02:27:39.428Z,7.3
2018-12-04T02:28:51.719Z,7.3
2018-12-04T02:30:03.936Z,7.2
2018-12-04T02:31:16.176Z,7.2
2018-12-04T02:32:28.345Z,7.2
2018-12-04T02:33:40.592Z,7.2
2018-12-04T02:34:52.793Z,7.2
2018-12-04T02:36:05.003Z,7.2
2018-12-04T02:37:17.482Z,7.2
2018-12-04T02:38:29.431Z,7.2
2018-12-04T02:39:41.660Z,7.2
2018-12-04T02:40:53.751Z,7.2
2018-12-04T02:42:06.039Z,7.2
2018-12-04T02:43:18.193Z,7.2
2018-12-04T02:44:30.500Z,7.1
2018-12-04T02:45:42.683Z,7.2
2018-12-04T02:46:55.913Z,7.2
2018-12-04T02:48:07.047Z,7.1
2018-12-04T02:49:19.343Z,7.1
2018-12-04T02:50:31.546Z,7.1
2018-12-04T02:51:43.765Z,7.1
2018-12-04T02:52:55.994Z,7.2
2018-12-04T02:54:08.118Z,7.1
2018-12-04T02:55:20.399Z,7.1
2018-12-04T02:56:32.538Z,7.2
2018-12-04T02:57:44.747Z,7.1
2018-12-04T02:58:56.956Z,7.1
2018-12-04T03:00:09.210Z,7.2
2018-12-04T03:01:21.413Z,7.3
2018-12-04T03:02:33.721Z,7.3
2018-12-04T03:03:45.895Z,7.3
2018-12-04T03:04:58.119Z,7.2
2018-12-04T03:06:10.529Z,7.3
2018-12-04T03:07:22.540Z,7.2
2018-12-04T03:08:34.736Z,7.2
2018-12-04T03:09:46.956Z,7.2
2018-12-04T03:10:59.092Z,7.1
2018-12-04T03:12:11.377Z,7.1
2018-12-04T03:13:23.584Z,7.1
2018-12-04T03:14:35.802Z,7.2
2018-12-04T03:15:48.020Z,7.3
2018-12-04T03:17:00.240Z,7.4
2018-12-04T03:18:12.440Z,7.4
2018-12-04T03:19:24.659Z,7.4
2018-12-04T03:20:36.831Z,7.4
2018-12-04T03:21:49.084Z,7.3
2018-12-04T03:23:01.332Z,7.2
2018-12-04T03:24:13.516Z,7.2
2018-12-04T03:25:25.727Z,7.2
2018-12-04T03:26:37.856Z,7.1
2018-12-04T03:27:50.068Z,7
2018-12-04T03:29:02.352Z,7.1
2018-12-04T03:30:14.485Z,7.1
2018-12-04T03:31:26.713Z,7.1
2018-12-04T03:32:38.897Z,7
2018-12-04T03:33:51.234Z,7.1
2018-12-04T03:35:03.369Z,7.2
2018-12-04T03:36:15.585Z,7.2
2018-12-04T03:37:27.706Z,7.2
2018-12-04T03:38:40.002Z,7.2
2018-12-04T03:39:52.203Z,7.2
2018-12-04T03:41:04.412Z,7.3
2018-12-04T03:42:16.627Z,7.2
2018-12-04T03:43:28.748Z,7.2
2018-12-04T03:44:41.005Z,7.2
2018-12-04T03:45:53.252Z,7.1
2018-12-04T03:47:05.409Z,7.1
2018-12-04T03:48:17.705Z,7.1
2018-12-04T03:49:29.924Z,7
2018-12-04T03:50:42.053Z,7.2
2018-12-04T03:51:54.348Z,7.2
2018-12-04T03:53:06.592Z,7.1
2018-12-04T03:54:18.816Z,7.1
2018-12-04T03:55:31.017Z,7
2018-12-04T03:56:43.167Z,6.9
2018-12-04T03:57:55.378Z,6.9
2018-12-04T03:59:07.716Z,6.9
2018-12-04T04:00:19.916Z,6.9
2018-12-04T04:01:32.024Z,6.9
2018-12-04T04:02:44.251Z,6.8
2018-12-04T04:03:56.502Z,6.7
2018-12-04T04:05:08.718Z,6.8
2018-12-04T04:07:33.086Z,6.7
2018-12-04T04:08:48.245Z,6.6
2018-12-04T04:09:57.483Z,6.7
2018-12-04T04:11:09.780Z,6.7
2018-12-04T04:12:22.008Z,6.6
2018-12-04T04:13:34.216Z,6.6
2018-12-04T04:14:46.419Z,6.5
2018-12-04T04:15:58.529Z,6.4
2018-12-04T04:17:10.744Z,6.3
2018-12-04T04:18:23.099Z,6.3
2018-12-04T04:19:35.195Z,6.2
2018-12-04T04:20:47.503Z,6.1
2018-12-04T04:21:59.723Z,6
2018-12-04T04:23:11.917Z,6.2
2018-12-04T04:24:24.029Z,6.1
2018-12-04T04:25:36.323Z,6.1
2018-12-04T04:26:48.542Z,6
2018-12-04T04:28:00.782Z,6
2018-12-04T04:29:12.963Z,6
2018-12-04T04:30:25.095Z,5.9
2018-12-04T04:31:37.415Z,5.8
2018-12-04T04:32:49.596Z,5.7
2018-12-04T04:34:01.745Z,5.9
2018-12-04T04:35:13.960Z,5.8
2018-12-04T04:36:26.228Z,5.8
2018-12-04T04:37:38.492Z,5.7
2018-12-04T04:38:50.748Z,5.6
2018-12-04T04:40:02.873Z,5.7
2018-12-04T04:41:15.007Z,5.6
2018-12-04T04:42:27.245Z,5.6
2018-12-04T04:43:39.496Z,5.6
2018-12-04T04:44:51.626Z,5.6
2018-12-04T04:46:04.359Z,5.5
2018-12-04T04:47:16.065Z,5.6
2018-12-04T04:48:28.337Z,5.6
2018-12-04T04:49:40.460Z,5.6
2018-12-04T04:50:52.749Z,5.6
2018-12-04T04:52:05.004Z,5.6
2018-12-04T04:53:17.151Z,5.5
2018-12-04T04:54:29.285Z,5.5
2018-12-04T04:55:41.565Z,5.4
2018-12-04T04:56:53.715Z,5.4
2018-12-04T04:58:05.985Z,5.3
2018-12-04T04:59:18.155Z,5.3
2018-12-04T05:00:30.379Z,5.3
2018-12-04T05:01:42.697Z,5.3
2018-12-04T05:02:54.853Z,5.2
2018-12-04T05:04:06.986Z,5.2
2018-12-04T05:05:19.213Z,5.1
2018-12-04T05:06:31.470Z,5.2
2018-12-04T05:07:43.813Z,5.2
2018-12-04T05:08:55.796Z,5.1
2018-12-04T05:10:08.009Z,5.1
2018-12-04T05:11:20.294Z,5.1
2018-12-04T05:12:32.458Z,5.1
2018-12-04T05:13:44.705Z,5.1
2018-12-04T05:14:56.956Z,5
2018-12-04T05:16:09.145Z,5
2018-12-04T05:17:21.304Z,5
2018-12-04T05:18:33.585Z,5
2018-12-04T05:19:45.799Z,5
2018-12-04T05:20:57.912Z,5
2018-12-04T05:22:10.205Z,5
2018-12-04T05:23:22.326Z,5
2018-12-04T05:24:34.732Z,4.9
2018-12-04T05:25:46.737Z,4.9
2018-12-04T05:26:58.945Z,4.9
2018-12-04T05:28:11.233Z,4.9
2018-12-04T05:29:23.469Z,4.9
2018-12-04T05:30:35.554Z,4.9
2018-12-04T05:31:47.827Z,4.9
2018-12-04T05:33:00.083Z,4.9
2018-12-04T05:34:12.252Z,4.8
2018-12-04T05:35:24.470Z,4.9
2018-12-04T05:36:36.652Z,4.9
2018-12-04T05:37:48.821Z,4.8
2018-12-04T05:39:01.041Z,4.8
2018-12-04T05:40:13.246Z,4.8
2018-12-04T05:41:25.457Z,4.8
2018-12-04T05:42:37.570Z,4.8
2018-12-04T05:43:49.762Z,4.9
2018-12-04T05:45:02.157Z,4.8
2018-12-04T05:46:14.244Z,4.8
2018-12-04T05:47:26.380Z,4.7
2018-12-04T05:48:38.669Z,4.7
2018-12-04T05:49:50.895Z,4.7
2018-12-04T05:51:03.015Z,4.7
2018-12-04T05:52:15.246Z,4.7
2018-12-04T05:53:27.499Z,4.7
2018-12-04T05:54:39.613Z,4.7
2018-12-04T05:55:51.828Z,4.7
2018-12-04T05:57:04.107Z,4.7
2018-12-04T05:58:16.239Z,4.7
2018-12-04T05:59:28.457Z,4.6
2018-12-04T06:00:40.800Z,4.6
2018-12-04T06:01:52.855Z,4.5
2018-12-04T06:03:05.071Z,4.6
2018-12-04T06:04:17.393Z,4.6
2018-12-04T06:05:29.483Z,4.6
2018-12-04T06:06:41.717Z,4.7
2018-12-04T06:09:06.089Z,4.6
2018-12-04T06:10:18.335Z,4.6
2018-12-04T06:11:30.593Z,4.6
2018-12-04T06:12:42.723Z,4.6
2018-12-04T06:13:55.054Z,4.6
2018-12-04T06:15:07.232Z,4.6
2018-12-04T06:16:19.416Z,4.6
2018-12-04T06:17:31.631Z,4.6
2018-12-04T06:18:43.763Z,4.6
2018-12-04T06:19:56.039Z,4.6
2018-12-04T06:21:08.274Z,4.6
2018-12-04T06:22:20.387Z,4.6
2018-12-04T06:23:32.695Z,4.6
2018-12-04T06:24:44.805Z,4.6
2018-12-04T06:25:57.094Z,4.6
2018-12-04T06:27:09.211Z,4.6
2018-12-04T06:29:33.708Z,4.7
2018-12-04T06:30:45.887Z,4.7
2018-12-04T06:31:58.030Z,4.7
2018-12-04T06:33:10.244Z,4.7
2018-12-04T06:34:22.452Z,4.6
2018-12-04T06:35:34.845Z,4.6
2018-12-04T06:36:46.874Z,4.6
2018-12-04T06:37:59.082Z,4.6
2018-12-04T06:39:11.384Z,4.7
2018-12-04T06:40:23.515Z,4.7
2018-12-04T06:41:35.780Z,4.7
2018-12-04T06:42:47.995Z,4.8
2018-12-04T06:44:00.234Z,4.8
2018-12-04T06:45:12.366Z,4.7
2018-12-04T06:46:24.645Z,4.7
2018-12-04T06:47:36.815Z,4.6
2018-12-04T06:48:49.042Z,4.5
2018-12-04T06:50:01.171Z,4.6
2018-12-04T06:51:13.477Z,4.6
2018-12-04T06:52:25.769Z,4.5
2018-12-04T06:53:37.904Z,4.5
2018-12-04T06:54:50.028Z,4.5
2018-12-04T06:56:02.573Z,4.6
2018-12-04T06:57:14.453Z,4.6
2018-12-04T06:58:26.701Z,4.5
2018-12-04T06:59:38.889Z,4.5
2018-12-04T07:00:53.602Z,4.5
2018-12-04T07:02:03.379Z,4.4
2018-12-04T07:03:15.523Z,4.4
2018-12-04T07:04:27.733Z,4.4
2018-12-04T07:05:39.958Z,4.5
2018-12-04T07:06:52.261Z,4.5
2018-12-04T07:08:04.451Z,4.5
2018-12-04T07:09:16.720Z,4.4
2018-12-04T07:10:28.893Z,4.4
2018-12-04T07:11:41.016Z,4.4
2018-12-04T07:12:53.240Z,4.4
2018-12-04T07:14:05.508Z,4.3
2018-12-04T07:15:17.716Z,4.3
2018-12-04T07:16:29.852Z,4.2
2018-12-04T07:17:42.050Z,4.2
2018-12-04T07:18:54.455Z,4.3
2018-12-04T07:20:06.571Z,4.3
2018-12-04T07:21:18.741Z,4.3
2018-12-04T07:22:30.977Z,4.3
2018-12-04T07:23:43.116Z,4.2
2018-12-04T07:24:55.255Z,4.3
2018-12-04T07:26:07.579Z,4.4
2018-12-04T07:27:19.671Z,4.4
2018-12-04T07:28:31.873Z,4.3
2018-12-04T07:29:44.167Z,4.3
2018-12-04T07:30:56.282Z,4.3
2018-12-04T07:32:08.487Z,4.3
2018-12-04T07:33:20.699Z,4.3
2018-12-04T07:34:32.884Z,4.3
2018-12-04T07:35:45.454Z,4.3
2018-12-04T07:36:57.288Z,4.3
2018-12-04T07:38:09.582Z,4.4
2018-12-04T07:39:21.740Z,4.4
2018-12-04T07:40:33.925Z,4.4
2018-12-04T07:41:46.181Z,4.4
2018-12-04T07:42:58.342Z,4.4
2018-12-04T07:44:10.618Z,4.4
2018-12-04T07:45:22.802Z,4.4
2018-12-04T07:46:35.017Z,4.5
2018-12-04T07:47:47.203Z,4.5
2018-12-04T07:48:59.343Z,4.5
2018-12-04T07:50:11.577Z,4.5
2018-12-04T07:51:23.728Z,4.5
2018-12-04T07:52:35.933Z,4.5
2018-12-04T07:53:48.230Z,4.5
2018-12-04T07:55:00.407Z,4.6
2018-12-04T07:56:12.611Z,4.6
2018-12-04T07:57:24.772Z,4.6
2018-12-04T07:58:36.958Z,4.6
2018-12-04T07:59:49.128Z,4.6
2018-12-04T08:01:01.334Z,4.6
2018-12-04T08:02:13.538Z,4.6
2018-12-04T08:03:25.800Z,4.5
2018-12-04T08:04:38.125Z,4.5
2018-12-04T08:05:50.270Z,4.5
2018-12-04T08:07:02.382Z,4.5
2018-12-04T08:08:14.645Z,4.5
2018-12-04T08:09:26.855Z,4.5
2018-12-04T08:10:38.972Z,4.5
2018-12-04T08:11:51.162Z,4.6
2018-12-04T08:13:03.352Z,4.6
2018-12-04T08:14:15.563Z,4.6
2018-12-04T08:15:27.766Z,4.6
2018-12-04T08:16:40.036Z,4.6
2018-12-04T08:17:52.325Z,4.6
2018-12-04T08:19:04.383Z,4.6
2018-12-04T08:20:16.589Z,4.6
2018-12-04T08:21:28.793Z,4.7
2018-12-04T08:22:41.006Z,4.7
2018-12-04T08:23:53.225Z,4.7
2018-12-04T08:25:05.431Z,4.8
2018-12-04T08:26:17.719Z,4.8
2018-12-04T08:27:30.817Z,4.8
2018-12-04T08:28:42.144Z,4.8
2018-12-04T08:29:57.973Z,4.8
2018-12-04T08:31:06.503Z,4.8
2018-12-04T08:32:18.699Z,4.9
2018-12-04T08:33:30.897Z,4.9
2018-12-04T08:34:43.104Z,4.9
2018-12-04T08:35:55.317Z,4.9
2018-12-04T08:37:07.584Z,5
2018-12-04T08:38:19.720Z,5
2018-12-04T08:39:32.647Z,5
2018-12-04T08:40:44.150Z,4.9
2018-12-04T08:41:56.424Z,4.9
2018-12-04T08:43:08.681Z,5
2018-12-04T08:44:20.826Z,5.1
2018-12-04T08:45:32.935Z,5.1
2018-12-04T08:46:45.157Z,5.1
2018-12-04T08:47:57.569Z,5.2
2018-12-04T08:49:09.600Z,5.2
2018-12-04T08:50:23.321Z,5.2
2018-12-04T08:51:34.069Z,5.2
2018-12-04T08:52:46.205Z,5.3
2018-12-04T08:53:58.421Z,5.4
2018-12-04T08:55:10.674Z,5.5
2018-12-04T08:56:23.086Z,5.5
2018-12-04T08:57:35.094Z,5.4
2018-12-04T08:58:47.329Z,5.4
2018-12-04T08:59:59.512Z,5.4
2018-12-04T09:01:11.700Z,5.6
2018-12-04T09:02:23.856Z,5.7
2018-12-04T09:03:36.875Z,5.6
2018-12-04T09:04:48.268Z,5.6
2018-12-04T09:06:00.532Z,5.6
2018-12-04T09:07:12.663Z,5.6
2018-12-04T09:08:24.942Z,5.6
2018-12-04T09:09:37.062Z,5.6
2018-12-04T09:10:49.373Z,5.8
2018-12-04T09:12:01.562Z,5.9
2018-12-04T09:13:13.777Z,5.8
2018-12-04T09:14:25.991Z,5.8
2018-12-04T09:15:38.223Z,5.7
2018-12-04T09:16:50.333Z,5.8
2018-12-04T09:18:02.603Z,5.9
2018-12-04T09:19:14.767Z,5.9
2018-12-04T09:20:26.996Z,5.9
2018-12-04T09:21:39.324Z,5.9
2018-12-04T09:22:51.410Z,5.9
2018-12-04T09:24:03.636Z,5.9
2018-12-04T09:25:15.931Z,6
2018-12-04T09:26:28.103Z,6.3
2018-12-04T09:27:40.259Z,6.5
2018-12-04T09:28:52.608Z,6.7
2018-12-04T09:30:04.679Z,6.6
2018-12-04T09:31:16.880Z,6.4
2018-12-04T09:32:29.100Z,6.3
2018-12-04T09:33:41.308Z,6.3
2018-12-04T09:34:53.523Z,6.4
2018-12-04T09:36:05.800Z,6.5
2018-12-04T09:37:17.946Z,6.6
2018-12-04T09:38:30.217Z,6.6
2018-12-04T09:39:42.433Z,6.5
2018-12-04T09:40:54.621Z,6.5
2018-12-04T09:42:06.776Z,6.5
2018-12-04T09:43:19.075Z,6.5
2018-12-04T09:44:31.198Z,6.5
2018-12-04T09:45:43.408Z,6.5
2018-12-04T09:46:55.830Z,6.6
2018-12-04T09:48:07.923Z,6.6
2018-12-04T09:49:20.061Z,6.5
2018-12-04T09:50:32.349Z,6.6
2018-12-04T09:51:44.496Z,6.7
2018-12-04T09:52:56.715Z,6.9
2018-12-04T09:54:08.976Z,6.9
2018-12-04T09:55:21.167Z,6.9
2018-12-04T09:56:33.335Z,6.9
2018-12-04T09:57:45.598Z,6.9
2018-12-04T09:58:57.766Z,7.1
2018-12-04T10:01:22.169Z,7
2018-12-04T10:02:34.442Z,7
2018-12-04T10:03:46.572Z,7.1
2018-12-04T10:04:58.857Z,7.1
2018-12-04T10:06:11.073Z,7.2
2018-12-04T10:07:23.326Z,7.2
2018-12-04T10:08:35.413Z,7.3
2018-12-04T10:09:47.727Z,7.5
2018-12-04T10:10:59.895Z,7.6
2018-12-04T10:12:12.148Z,7.5
2018-12-04T10:13:24.278Z,7.4
2018-12-04T10:14:36.468Z,7.4
2018-12-04T10:15:48.750Z,7.3
2018-12-04T10:17:00.890Z,7.2
2018-12-04T10:18:13.098Z,7.1
2018-12-04T10:19:25.326Z,7.2
2018-12-04T10:20:37.598Z,7.3
2018-12-04T10:21:49.767Z,7.3
2018-12-04T10:23:01.957Z,7.4
2018-12-04T10:24:14.177Z,7.5
2018-12-04T10:25:26.366Z,7.6
2018-12-04T10:26:38.659Z,7.8
2018-12-04T10:27:50.858Z,8.2
2018-12-04T10:29:03.000Z,8.6
2018-12-04T10:30:15.203Z,8.8
2018-12-04T10:31:27.502Z,8.8
2018-12-04T10:32:39.619Z,8.7
2018-12-04T10:33:51.835Z,8.5
2018-12-04T10:35:04.118Z,8.4
2018-12-04T10:36:16.339Z,8.5
2018-12-04T10:37:28.652Z,8.6
2018-12-04T10:38:40.795Z,8.5
2018-12-04T10:39:52.889Z,8.8
2018-12-04T10:41:05.089Z,8.9
2018-12-04T10:42:17.374Z,9
2018-12-04T10:43:29.525Z,9
2018-12-04T10:44:41.819Z,9.2
2018-12-04T10:45:53.952Z,9.7
2018-12-04T10:47:06.224Z,9.7
2018-12-04T10:48:18.386Z,9.9
2018-12-04T10:49:30.575Z,10
2018-12-04T10:50:42.865Z,10.2
2018-12-04T10:51:55.069Z,10.4
2018-12-04T10:53:07.287Z,10.3
2018-12-04T10:54:19.481Z,10
2018-12-04T10:55:31.638Z,9.8
2018-12-04T10:56:43.906Z,10.1
2018-12-04T10:57:56.049Z,9.8
2018-12-04T10:59:08.258Z,9.8
2018-12-04T11:00:20.599Z,9.7
2018-12-04T11:01:32.701Z,9.6
2018-12-04T11:02:44.909Z,9.4
2018-12-04T11:03:57.108Z,9.1
2018-12-04T11:05:09.354Z,9.1
2018-12-04T11:06:21.589Z,9
2018-12-04T11:07:33.878Z,8.8
2018-12-04T11:08:46.021Z,8.7
2018-12-04T11:09:58.251Z,8.3
2018-12-04T11:11:10.453Z,7.9
2018-12-04T11:12:22.596Z,7.8
2018-12-04T11:13:34.814Z,7.8
2018-12-04T11:14:47.079Z,7.8
2018-12-04T11:15:59.260Z,7.6
2018-12-04T11:17:11.455Z,7.7
2018-12-04T11:18:23.671Z,7.9
2018-12-04T11:19:35.963Z,8.2
2018-12-04T11:20:48.193Z,8.1
2018-12-04T11:22:00.333Z,8
2018-12-04T11:23:12.708Z,8.1
2018-12-04T11:24:24.747Z,8.1
2018-12-04T11:25:36.958Z,8.3
2018-12-04T11:26:49.384Z,8.3
2018-12-04T11:28:01.398Z,8.3
2018-12-04T11:29:13.665Z,8.1
2018-12-04T11:30:26.144Z,8.1
2018-12-04T11:31:38.111Z,8.2
2018-12-04T11:32:50.317Z,8.3
2018-12-04T11:34:02.538Z,8.1
2018-12-04T11:35:14.768Z,7.9
2018-12-04T11:36:27.010Z,7.9
2018-12-04T11:37:39.121Z,7.9
2018-12-04T11:38:51.973Z,7.9
2018-12-04T11:40:03.578Z,7.9
2018-12-04T11:41:15.867Z,7.8
2018-12-04T11:42:28.021Z,7.9
2018-12-04T11:43:40.249Z,7.9
2018-12-04T11:44:52.493Z,7.8
2018-12-04T11:46:04.700Z,7.9
2018-12-04T11:47:16.852Z,7.9
2018-12-04T11:48:29.096Z,7.9
2018-12-04T11:49:42.666Z,8
2018-12-04T11:50:53.500Z,8
2018-12-04T11:52:05.753Z,7.9
2018-12-04T11:53:17.929Z,7.9
2018-12-04T11:54:30.224Z,7.9
2018-12-04T11:55:42.362Z,8.1
2018-12-04T11:56:54.701Z,8.3
2018-12-04T11:58:06.777Z,8.3
2018-12-04T11:59:18.988Z,8.5
2018-12-04T12:00:31.263Z,8.5
2018-12-04T12:01:43.489Z,8.5
2018-12-04T12:02:55.805Z,8.4
2018-12-04T12:04:07.848Z,8.2
2018-12-04T12:05:20.146Z,8.1
2018-12-04T12:06:32.282Z,8.1
2018-12-04T12:07:44.516Z,8.2
2018-12-04T12:08:56.814Z,8.5
2018-12-04T12:10:08.931Z,8.8
2018-12-04T12:11:21.225Z,9.4
2018-12-04T12:12:33.445Z,9.8
2018-12-04T12:13:45.707Z,9.5
2018-12-04T12:14:57.806Z,9.5
2018-12-04T12:16:10.052Z,9.8
2018-12-04T12:17:25.102Z,10.4
2018-12-04T12:18:34.470Z,10.2
2018-12-04T12:19:46.710Z,9.4
2018-12-04T12:20:58.883Z,8.9
2018-12-04T12:22:11.126Z,8.9
2018-12-04T12:23:23.413Z,8.9
2018-12-04T12:24:35.557Z,8.9
2018-12-04T12:25:47.770Z,8.8
2018-12-04T12:26:59.996Z,8.6
2018-12-04T12:28:12.217Z,8.5
2018-12-04T12:29:24.430Z,8.3
2018-12-04T12:30:36.725Z,8.2
2018-12-04T12:31:48.952Z,8.1
2018-12-04T12:33:01.109Z,8
2018-12-04T12:34:14.840Z,7.9
2018-12-04T12:35:25.626Z,7.8
2018-12-04T12:36:37.868Z,7.9
2018-12-04T12:37:50.530Z,8
2018-12-04T12:39:02.219Z,8
2018-12-04T12:40:14.442Z,8
2018-12-04T12:41:26.773Z,8
2018-12-04T12:42:38.927Z,8
2018-12-04T12:43:51.125Z,8
2018-12-04T12:45:03.334Z,8
2018-12-04T12:46:15.544Z,8
2018-12-04T12:47:27.763Z,7.9
2018-12-04T12:48:39.989Z,8
2018-12-04T12:49:52.292Z,7.9
2018-12-04T12:51:04.495Z,7.9
2018-12-04T12:52:16.677Z,7.8
2018-12-04T12:53:28.851Z,7.9
2018-12-04T12:54:41.200Z,7.9
2018-12-04T12:55:53.382Z,7.8
2018-12-04T12:57:05.619Z,7.8
2018-12-04T12:58:17.780Z,7.7
2018-12-04T12:59:29.990Z,7.8
2018-12-04T13:00:42.168Z,7.8
2018-12-04T13:01:54.380Z,7.8
2018-12-04T13:03:06.590Z,7.8
2018-12-04T13:04:18.937Z,7.8
2018-12-04T13:05:31.036Z,7.8
2018-12-04T13:06:43.333Z,7.8
2018-12-04T13:07:55.447Z,7.8
2018-12-04T13:09:07.742Z,7.7
2018-12-04T13:10:19.906Z,7.7
2018-12-04T13:11:32.100Z,7.8
2018-12-04T13:12:44.558Z,7.8
2018-12-04T13:13:56.645Z,7.8
2018-12-04T13:15:08.839Z,7.8
2018-12-04T13:16:21.054Z,7.7
2018-12-04T13:17:34.999Z,7.8
2018-12-04T13:18:45.436Z,7.8
2018-12-04T13:19:57.755Z,7.8
2018-12-04T13:21:09.865Z,7.7
2018-12-04T13:22:22.350Z,7.6
2018-12-04T13:23:34.376Z,7.5
2018-12-04T13:24:46.571Z,7.5
2018-12-04T13:25:58.891Z,7.5
2018-12-04T13:27:11.032Z,7.6
2018-12-04T13:28:23.413Z,7.7
2018-12-04T13:29:35.420Z,7.7
2018-12-04T13:30:47.711Z,7.8
2018-12-04T13:31:59.936Z,7.7
2018-12-04T13:33:12.149Z,7.7
2018-12-04T13:34:24.369Z,7.7
2018-12-04T13:35:36.573Z,7.7
2018-12-04T13:36:48.774Z,7.8
2018-12-04T13:38:01.020Z,7.8
2018-12-04T13:39:13.246Z,7.9
2018-12-04T13:40:25.448Z,7.9
2018-12-04T13:41:37.598Z,7.9
2018-12-04T13:42:50.011Z,8
2018-12-04T13:44:02.132Z,8
2018-12-04T13:45:14.277Z,8.1
2018-12-04T13:46:26.506Z,8
2018-12-04T13:47:38.788Z,7.9
2018-12-04T13:48:51.002Z,7.9
2018-12-04T13:50:03.537Z,7.9
2018-12-04T13:51:17.161Z,7.9
2018-12-04T13:52:27.630Z,7.9
2018-12-04T13:53:39.838Z,7.8
2018-12-04T13:54:52.051Z,7.7
2018-12-04T13:56:04.360Z,7.5
2018-12-04T13:57:16.689Z,7.4
2018-12-04T13:58:28.801Z,7.4
2018-12-04T13:59:40.921Z,7.4
2018-12-04T14:00:53.148Z,7.5
2018-12-04T14:02:05.350Z,7.5
2018-12-04T14:03:17.645Z,7.5
2018-12-04T14:04:29.885Z,7.6
2018-12-04T14:05:42.062Z,7.6
2018-12-04T14:06:54.225Z,7.7
2018-12-04T14:08:06.457Z,7.8
2018-12-04T14:09:18.789Z,7.8
2018-12-04T14:10:30.897Z,7.8
2018-12-04T14:11:43.137Z,7.7
2018-12-04T14:12:55.433Z,7.6
2018-12-04T14:14:07.535Z,7.4
2018-12-04T14:15:19.775Z,7.3
2018-12-04T14:16:31.986Z,7.2
2018-12-04T14:17:44.279Z,7.2
2018-12-04T14:18:56.417Z,7.1
2018-12-04T14:20:08.676Z,7.1
2018-12-04T14:21:21.108Z,7.1
2018-12-04T14:22:33.077Z,7.2
2018-12-04T14:23:45.391Z,7.2
2018-12-04T14:24:57.575Z,7.2
2018-12-04T14:26:09.731Z,7.2
2018-12-04T14:27:21.967Z,7.2
2018-12-04T14:28:34.190Z,7.1
2018-12-04T14:29:46.434Z,7.1
2018-12-04T14:30:58.651Z,7.1
2018-12-04T14:32:10.957Z,7
2018-12-04T14:33:23.080Z,6.9
2018-12-04T14:34:35.389Z,6.9
2018-12-04T14:35:47.602Z,6.9
2018-12-04T14:36:59.739Z,6.9
2018-12-04T14:38:12.030Z,6.8
2018-12-04T14:39:24.272Z,6.7
2018-12-04T14:40:36.468Z,6.6
2018-12-04T14:41:48.614Z,6.5
2018-12-04T14:43:00.931Z,6.7
2018-12-04T14:44:13.155Z,6.7
2018-12-04T14:45:25.351Z,6.6
2018-12-04T14:46:37.584Z,6.6
2018-12-04T14:47:49.866Z,6.5
2018-12-04T14:49:01.939Z,6.5
2018-12-04T14:50:14.277Z,6.4
2018-12-04T14:51:26.402Z,6.4
2018-12-04T14:52:38.683Z,6.4
2018-12-04T14:53:50.913Z,6.4
2018-12-04T14:55:03.150Z,6.5
2018-12-04T14:56:15.273Z,6.5
2018-12-04T14:57:27.486Z,6.4
2018-12-04T14:58:39.704Z,6.3
2018-12-04T14:59:52.006Z,6.2
2018-12-04T15:01:04.211Z,6.2
2018-12-04T15:02:16.378Z,6.1
2018-12-04T15:03:28.615Z,6
2018-12-04T15:04:40.811Z,5.9
2018-12-04T15:05:53.023Z,5.9
2018-12-04T15:07:05.323Z,5.9
2018-12-04T15:08:17.539Z,5.9
2018-12-04T15:09:29.864Z,5.9
2018-12-04T15:10:41.918Z,5.9
2018-12-04T15:11:54.177Z,5.9
2018-12-04T15:13:06.307Z,5.8
2018-12-04T15:14:18.532Z,5.8
2018-12-04T15:15:30.809Z,5.8
2018-12-04T15:16:43.023Z,5.7
2018-12-04T15:17:55.278Z,5.7
2018-12-04T15:19:07.396Z,5.7
2018-12-04T15:20:19.678Z,5.7
2018-12-04T15:21:31.898Z,5.7
2018-12-04T15:22:44.104Z,5.6
2018-12-04T15:23:56.395Z,5.6
2018-12-04T15:25:08.725Z,5.6
2018-12-04T15:26:20.778Z,5.5
2018-12-04T15:27:33.011Z,5.5
2018-12-04T15:28:45.243Z,5.5
2018-12-04T15:29:57.368Z,5.5
2018-12-04T15:31:09.584Z,5.5
2018-12-04T15:32:21.952Z,5.4
2018-12-04T15:33:34.344Z,5.4
2018-12-04T15:34:46.268Z,5.4
2018-12-04T15:35:58.509Z,5.3
2018-12-04T15:37:10.729Z,5.2
2018-12-04T15:38:22.987Z,5.1
2018-12-04T15:39:35.113Z,5
2018-12-04T15:40:47.322Z,4.9
2018-12-04T15:41:59.887Z,4.9
2018-12-04T15:43:11.818Z,4.8
2018-12-04T15:44:23.925Z,4.8
2018-12-04T15:45:36.237Z,4.8
2018-12-04T15:46:48.389Z,4.7
2018-12-04T15:48:00.629Z,4.7
2018-12-04T15:49:12.857Z,4.6
2018-12-04T15:50:25.061Z,4.5
2018-12-04T15:51:37.205Z,4.4
2018-12-04T15:52:49.428Z,4.4
2018-12-04T15:54:01.642Z,4.4
2018-12-04T15:55:13.865Z,4.4
2018-12-04T15:56:26.066Z,4.4
2018-12-04T15:57:38.370Z,4.4
2018-12-04T15:58:50.580Z,4.4
2018-12-04T16:00:02.824Z,4.4
2018-12-04T16:01:14.952Z,4.4
2018-12-04T16:02:27.281Z,4.3
2018-12-04T16:03:39.389Z,4.4
2018-12-04T16:04:51.624Z,4.4
2018-12-04T16:06:03.914Z,4.3
2018-12-04T16:07:16.130Z,4.3
2018-12-04T16:08:28.239Z,4.2
2018-12-04T16:09:40.475Z,4.1
2018-12-04T16:10:52.748Z,4
2018-12-04T16:12:04.883Z,4
2018-12-04T16:13:17.098Z,4.1
2018-12-04T16:14:29.313Z,4.1
2018-12-04T16:15:41.537Z,4.1
2018-12-04T16:16:53.747Z,4.2
2018-12-04T16:18:06.043Z,4.2
2018-12-04T16:19:18.181Z,4.2
2018-12-04T16:20:30.390Z,4.2
2018-12-04T16:21:42.691Z,4.2
2018-12-04T16:22:54.910Z,4.2
2018-12-04T16:24:07.081Z,4.3
2018-12-04T16:25:19.414Z,4.3
2018-12-04T16:26:31.503Z,4.3
2018-12-04T16:27:43.790Z,4.2
2018-12-04T16:28:56.012Z,4.2
2018-12-04T16:30:08.143Z,4.2
2018-12-04T16:31:20.413Z,4.2
2018-12-04T16:32:32.577Z,4.3
2018-12-04T16:33:45.047Z,4.2
2018-12-04T16:34:57.001Z,4.2
2018-12-04T16:36:09.339Z,4.2
2018-12-04T16:37:21.486Z,4.1
2018-12-04T16:38:33.608Z,4.1
2018-12-04T16:39:45.846Z,4.1
2018-12-04T16:40:58.127Z,4
2018-12-04T16:42:10.238Z,4
2018-12-04T16:43:22.512Z,4
2018-12-04T16:44:34.654Z,3.9
2018-12-04T16:45:46.871Z,3.9